sensor_id;sensor_type;location;lat;lon;timestamp;P1;durP1;ratioP1;P2;durP2;ratioP2
63651;SDS011;49801;37.536;-122.304;2023-02-01T00:00:00;40.03;;;38.42;;
63651;SDS011;49801;37.536;-122.304;2023-02-01T00:00:26;40.40;;;38.95;;
63651;SDS011;49801;37.536;-122.304;2023-02-01T00:00:52;31.58;;;30.42;;
63651;SDS011;49801;37.536;-122.304;2023-02-01T00:01:18;35.75;;;34.47;;
63651;SDS011;49801;37.536;-122.304;2023-02-01T00:01:44;30.70;;;29.50;;
63651;SDS011;49801;37.536;-122.304;2023-02-01T00:02:10;24.05;;;23.27;;
63651;SDS011;49801;37.536;-122.304;2023-02-01T00:02:37;33.33;;;32.17;;
63651;SDS011;49801;37.536;-122.304;2023-02-01T00:03:05;32.58;;;31.00;;
63651;SDS011;49801;37.536;-122.304;2023-02-01T00:03:33;31.83;;;30.63;;
63651;SDS011;49801;37.536;-122.304;2023-02-01T00:03:59;26.60;;;25.75;;
63651;SDS011;49801;37.536;-122.304;2023-02-01T00:04:25;24.35;;;23.45;;
63651;SDS011;49801;37.536;-122.304;2023-02-01T00:04:52;30.23;;;29.17;;
63651;SDS011;49801;37.536;-122.304;2023-02-01T00:05:18;29.70;;;28.70;;
63651;SDS011;49801;37.536;-122.304;2023-02-01T00:05:44;32.17;;;31.02;;
63651;SDS011;49801;37.536;-122.304;2023-02-01T00:06:19;24.52;;;23.63;;
63651;SDS011;49801;37.536;-122.304;2023-02-01T00:06:45;35.28;;;34.10;;
63651;SDS011;49801;37.536;-122.304;2023-02-01T00:07:12;33.72;;;32.53;;
63651;SDS011;49801;37.536;-122.304;2023-02-01T00:07:38;23.92;;;23.17;;
63651;SDS011;49801;37.536;-122.304;2023-02-01T00:08:04;27.42;;;26.55;;
63651;SDS011;49801;37.536;-122.304;2023-02-01T00:08:30;29.50;;;28.45;;
63651;SDS011;49801;37.536;-122.304;2023-02-01T00:08:56;25.17;;;24.30;;
63651;SDS011;49801;37.536;-122.304;2023-02-01T00:09:23;25.67;;;24.83;;
63651;SDS011;49801;37.536;-122.304;2023-02-01T00:09:49;29.30;;;28.38;;
63651;SDS011;49801;37.536;-122.304;2023-02-01T00:10:15;29.20;;;28.25;;
63651;SDS011;49801;37.536;-122.304;2023-02-01T00:10:42;31.85;;;30.67;;
63651;SDS011;49801;37.536;-122.304;2023-02-01T00:11:09;30.02;;;28.83;;
63651;SDS011;49801;37.536;-122.304;2023-02-01T00:11:37;33.10;;;31.80;;
63651;SDS011;49801;37.536;-122.304;2023-02-01T00:12:03;29.38;;;28.42;;
63651;SDS011;49801;37.536;-122.304;2023-02-01T00:12:30;33.45;;;32.03;;
63651;SDS011;49801;37.536;-122.304;2023-02-01T00:12:56;29.67;;;28.65;;
63651;SDS011;49801;37.536;-122.304;2023-02-01T00:13:22;35.83;;;34.40;;
63651;SDS011;49801;37.536;-122.304;2023-02-01T00:13:49;34.60;;;33.50;;
63651;SDS011;49801;37.536;-122.304;2023-02-01T00:14:15;29.00;;;27.92;;
63651;SDS011;49801;37.536;-122.304;2023-02-01T00:14:42;23.40;;;22.60;;
63651;SDS011;49801;37.536;-122.304;2023-02-01T00:15:08;22.00;;;21.30;;
63651;SDS011;49801;37.536;-122.304;2023-02-01T00:15:34;18.50;;;17.80;;
63651;SDS011;49801;37.536;-122.304;2023-02-01T00:16:11;23.13;;;22.45;;
63651;SDS011;49801;37.536;-122.304;2023-02-01T00:16:38;16.35;;;15.85;;
63651;SDS011;49801;37.536;-122.304;2023-02-01T00:17:07;18.83;;;18.27;;
63651;SDS011;49801;37.536;-122.304;2023-02-01T00:17:33;18.63;;;18.05;;
63651;SDS011;49801;37.536;-122.304;2023-02-01T00:17:59;24.90;;;24.10;;
63651;SDS011;49801;37.536;-122.304;2023-02-01T00:18:25;26.90;;;25.77;;
63651;SDS011;49801;37.536;-122.304;2023-02-01T00:18:55;26.35;;;25.52;;
63651;SDS011;49801;37.536;-122.304;2023-02-01T00:19:26;18.77;;;18.20;;
63651;SDS011;49801;37.536;-122.304;2023-02-01T00:19:52;21.45;;;20.77;;
63651;SDS011;49801;37.536;-122.304;2023-02-01T00:20:18;30.65;;;29.60;;
63651;SDS011;49801;37.536;-122.304;2023-02-01T00:20:45;32.38;;;31.27;;
63651;SDS011;49801;37.536;-122.304;2023-02-01T00:21:16;27.25;;;26.35;;
63651;SDS011;49801;37.536;-122.304;2023-02-01T00:21:43;26.90;;;25.90;;
63651;SDS011;49801;37.536;-122.304;2023-02-01T00:22:10;29.02;;;28.10;;
63651;SDS011;49801;37.536;-122.304;2023-02-01T00:22:36;30.65;;;29.65;;
63651;SDS011;49801;37.536;-122.304;2023-02-01T00:23:03;32.85;;;31.67;;
63651;SDS011;49801;37.536;-122.304;2023-02-01T00:23:31;31.67;;;30.58;;
63651;SDS011;49801;37.536;-122.304;2023-02-01T00:24:01;45.65;;;43.85;;
63651;SDS011;49801;37.536;-122.304;2023-02-01T00:24:28;33.65;;;32.25;;
63651;SDS011;49801;37.536;-122.304;2023-02-01T00:24:54;37.35;;;36.00;;
63651;SDS011;49801;37.536;-122.304;2023-02-01T00:25:20;27.48;;;26.42;;
63651;SDS011;49801;37.536;-122.304;2023-02-01T00:25:46;26.27;;;25.38;;
63651;SDS011;49801;37.536;-122.304;2023-02-01T00:26:43;21.27;;;20.27;;
63651;SDS011;49801;37.536;-122.304;2023-02-01T00:27:10;24.55;;;23.60;;
63651;SDS011;49801;37.536;-122.304;2023-02-01T00:27:42;24.52;;;23.63;;
63651;SDS011;49801;37.536;-122.304;2023-02-01T00:28:08;34.25;;;32.88;;
63651;SDS011;49801;37.536;-122.304;2023-02-01T00:28:34;33.25;;;32.08;;
63651;SDS011;49801;37.536;-122.304;2023-02-01T00:29:01;28.85;;;27.90;;
63651;SDS011;49801;37.536;-122.304;2023-02-01T00:29:29;28.50;;;27.40;;
63651;SDS011;49801;37.536;-122.304;2023-02-01T00:29:55;28.08;;;27.20;;
63651;SDS011;49801;37.536;-122.304;2023-02-01T00:30:21;27.10;;;26.30;;
63651;SDS011;49801;37.536;-122.304;2023-02-01T00:30:55;23.15;;;22.45;;
63651;SDS011;49801;37.536;-122.304;2023-02-01T00:31:30;13.55;;;13.15;;
63651;SDS011;49801;37.536;-122.304;2023-02-01T00:31:56;20.83;;;19.83;;
63651;SDS011;49801;37.536;-122.304;2023-02-01T00:32:22;21.70;;;21.02;;
63651;SDS011;49801;37.536;-122.304;2023-02-01T00:32:49;23.88;;;23.08;;
63651;SDS011;49801;37.536;-122.304;2023-02-01T00:33:15;26.58;;;25.60;;
63651;SDS011;49801;37.536;-122.304;2023-02-01T00:33:41;24.75;;;23.90;;
63651;SDS011;49801;37.536;-122.304;2023-02-01T00:34:08;23.33;;;22.50;;
63651;SDS011;49801;37.536;-122.304;2023-02-01T00:34:39;20.92;;;20.30;;
63651;SDS011;49801;37.536;-122.304;2023-02-01T00:35:05;26.17;;;25.38;;
63651;SDS011;49801;37.536;-122.304;2023-02-01T00:35:34;27.63;;;26.70;;
63651;SDS011;49801;37.536;-122.304;2023-02-01T00:36:02;23.77;;;23.05;;
63651;SDS011;49801;37.536;-122.304;2023-02-01T00:36:30;21.00;;;20.13;;
63651;SDS011;49801;37.536;-122.304;2023-02-01T00:36:56;27.15;;;26.25;;
63651;SDS011;49801;37.536;-122.304;2023-02-01T00:37:22;29.27;;;28.27;;
63651;SDS011;49801;37.536;-122.304;2023-02-01T00:37:49;27.17;;;26.27;;
63651;SDS011;49801;37.536;-122.304;2023-02-01T00:38:15;20.85;;;20.23;;
63651;SDS011;49801;37.536;-122.304;2023-02-01T00:38:41;22.50;;;21.63;;
63651;SDS011;49801;37.536;-122.304;2023-02-01T00:39:07;29.50;;;28.33;;
63651;SDS011;49801;37.536;-122.304;2023-02-01T00:39:34;22.25;;;21.58;;
63651;SDS011;49801;37.536;-122.304;2023-02-01T00:40:00;27.58;;;26.65;;
63651;SDS011;49801;37.536;-122.304;2023-02-01T00:40:26;26.08;;;25.27;;
63651;SDS011;49801;37.536;-122.304;2023-02-01T00:40:52;22.17;;;21.48;;
63651;SDS011;49801;37.536;-122.304;2023-02-01T00:41:20;21.30;;;20.70;;
63651;SDS011;49801;37.536;-122.304;2023-02-01T00:41:47;20.95;;;19.65;;
63651;SDS011;49801;37.536;-122.304;2023-02-01T00:42:13;22.85;;;21.88;;
63651;SDS011;49801;37.536;-122.304;2023-02-01T00:42:39;23.50;;;22.60;;
63651;SDS011;49801;37.536;-122.304;2023-02-01T00:43:05;24.23;;;23.45;;
63651;SDS011;49801;37.536;-122.304;2023-02-01T00:43:31;25.67;;;24.58;;
63651;SDS011;49801;37.536;-122.304;2023-02-01T00:43:58;24.17;;;23.33;;
63651;SDS011;49801;37.536;-122.304;2023-02-01T00:44:24;27.63;;;26.67;;
63651;SDS011;49801;37.536;-122.304;2023-02-01T00:44:50;24.23;;;23.45;;
63651;SDS011;49801;37.536;-122.304;2023-02-01T00:45:16;24.65;;;23.75;;
63651;SDS011;49801;37.536;-122.304;2023-02-01T00:45:44;25.98;;;25.15;;
63651;SDS011;49801;37.536;-122.304;2023-02-01T00:46:12;29.45;;;28.45;;
63651;SDS011;49801;37.536;-122.304;2023-02-01T00:46:39;23.58;;;22.83;;
63651;SDS011;49801;37.536;-122.304;2023-02-01T00:47:05;25.35;;;24.45;;
63651;SDS011;49801;37.536;-122.304;2023-02-01T00:47:32;32.58;;;31.42;;
63651;SDS011;49801;37.536;-122.304;2023-02-01T00:47:58;26.92;;;26.02;;
63651;SDS011;49801;37.536;-122.304;2023-02-01T00:48:24;33.47;;;32.17;;
63651;SDS011;49801;37.536;-122.304;2023-02-01T00:48:51;25.35;;;24.55;;
63651;SDS011;49801;37.536;-122.304;2023-02-01T00:49:17;35.55;;;34.33;;
63651;SDS011;49801;37.536;-122.304;2023-02-01T00:49:43;30.25;;;29.30;;
63651;SDS011;49801;37.536;-122.304;2023-02-01T00:50:10;28.88;;;27.88;;
63651;SDS011;49801;37.536;-122.304;2023-02-01T00:50:40;22.75;;;22.02;;
63651;SDS011;49801;37.536;-122.304;2023-02-01T00:51:11;23.73;;;23.02;;
63651;SDS011;49801;37.536;-122.304;2023-02-01T00:51:39;21.17;;;20.55;;
63651;SDS011;49801;37.536;-122.304;2023-02-01T00:52:05;24.73;;;23.95;;
63651;SDS011;49801;37.536;-122.304;2023-02-01T00:52:31;26.55;;;25.55;;
63651;SDS011;49801;37.536;-122.304;2023-02-01T00:52:57;27.60;;;26.20;;
63651;SDS011;49801;37.536;-122.304;2023-02-01T00:53:23;19.15;;;18.50;;
63651;SDS011;49801;37.536;-122.304;2023-02-01T00:53:50;24.08;;;23.27;;
63651;SDS011;49801;37.536;-122.304;2023-02-01T00:54:16;22.98;;;22.05;;
63651;SDS011;49801;37.536;-122.304;2023-02-01T00:54:42;24.20;;;23.38;;
63651;SDS011;49801;37.536;-122.304;2023-02-01T00:55:08;25.63;;;24.83;;
63651;SDS011;49801;37.536;-122.304;2023-02-01T00:55:34;31.98;;;30.90;;
63651;SDS011;49801;37.536;-122.304;2023-02-01T00:56:01;33.03;;;31.67;;
63651;SDS011;49801;37.536;-122.304;2023-02-01T00:56:27;23.05;;;22.23;;
63651;SDS011;49801;37.536;-122.304;2023-02-01T00:56:53;25.63;;;24.65;;
63651;SDS011;49801;37.536;-122.304;2023-02-01T00:57:19;16.65;;;16.05;;
63651;SDS011;49801;37.536;-122.304;2023-02-01T00:57:45;18.20;;;17.52;;
63651;SDS011;49801;37.536;-122.304;2023-02-01T00:58:11;22.23;;;21.42;;
63651;SDS011;49801;37.536;-122.304;2023-02-01T00:58:38;27.42;;;26.08;;
63651;SDS011;49801;37.536;-122.304;2023-02-01T00:59:04;22.98;;;22.17;;
63651;SDS011;49801;37.536;-122.304;2023-02-01T00:59:30;21.90;;;21.20;;
63651;SDS011;49801;37.536;-122.304;2023-02-01T00:59:56;22.00;;;21.25;;
63651;SDS011;49801;37.536;-122.304;2023-02-01T01:00:22;21.35;;;20.70;;
63651;SDS011;49801;37.536;-122.304;2023-02-01T01:00:49;16.50;;;16.00;;
63651;SDS011;49801;37.536;-122.304;2023-02-01T01:01:17;15.02;;;14.52;;
63651;SDS011;49801;37.536;-122.304;2023-02-01T01:01:45;8.40;;;8.18;;
63651;SDS011;49801;37.536;-122.304;2023-02-01T01:02:11;12.43;;;11.95;;
63651;SDS011;49801;37.536;-122.304;2023-02-01T01:02:39;13.10;;;12.70;;
63651;SDS011;49801;37.536;-122.304;2023-02-01T01:03:06;13.55;;;13.15;;
63651;SDS011;49801;37.536;-122.304;2023-02-01T01:03:47;17.90;;;17.20;;
63651;SDS011;49801;37.536;-122.304;2023-02-01T01:04:15;15.35;;;14.80;;
63651;SDS011;49801;37.536;-122.304;2023-02-01T01:04:42;17.25;;;16.55;;
63651;SDS011;49801;37.536;-122.304;2023-02-01T01:05:08;16.38;;;15.77;;
63651;SDS011;49801;37.536;-122.304;2023-02-01T01:05:34;19.05;;;18.30;;
63651;SDS011;49801;37.536;-122.304;2023-02-01T01:06:01;15.15;;;14.65;;
63651;SDS011;49801;37.536;-122.304;2023-02-01T01:06:31;16.30;;;15.73;;
63651;SDS011;49801;37.536;-122.304;2023-02-01T01:06:58;17.85;;;17.23;;
63651;SDS011;49801;37.536;-122.304;2023-02-01T01:07:25;30.38;;;29.17;;
63651;SDS011;49801;37.536;-122.304;2023-02-01T01:07:51;42.47;;;40.80;;
63651;SDS011;49801;37.536;-122.304;2023-02-01T01:08:17;11.45;;;10.95;;
63651;SDS011;49801;37.536;-122.304;2023-02-01T01:08:43;16.70;;;15.98;;
63651;SDS011;49801;37.536;-122.304;2023-02-01T01:09:10;23.25;;;22.15;;
63651;SDS011;49801;37.536;-122.304;2023-02-01T01:09:36;15.68;;;14.98;;
63651;SDS011;49801;37.536;-122.304;2023-02-01T01:10:02;19.48;;;18.77;;
63651;SDS011;49801;37.536;-122.304;2023-02-01T01:10:28;15.95;;;15.45;;
63651;SDS011;49801;37.536;-122.304;2023-02-01T01:10:55;16.65;;;16.15;;
63651;SDS011;49801;37.536;-122.304;2023-02-01T01:11:23;14.55;;;14.05;;
63651;SDS011;49801;37.536;-122.304;2023-02-01T01:11:52;10.65;;;10.25;;
63651;SDS011;49801;37.536;-122.304;2023-02-01T01:12:18;20.73;;;20.08;;
63651;SDS011;49801;37.536;-122.304;2023-02-01T01:12:45;40.08;;;38.53;;
63651;SDS011;49801;37.536;-122.304;2023-02-01T01:13:11;17.63;;;17.13;;
63651;SDS011;49801;37.536;-122.304;2023-02-01T01:13:37;15.77;;;15.25;;
63651;SDS011;49801;37.536;-122.304;2023-02-01T01:14:03;14.70;;;14.20;;
63651;SDS011;49801;37.536;-122.304;2023-02-01T01:14:32;11.20;;;10.88;;
63651;SDS011;49801;37.536;-122.304;2023-02-01T01:14:58;12.18;;;11.77;;
63651;SDS011;49801;37.536;-122.304;2023-02-01T01:15:24;11.20;;;10.63;;
63651;SDS011;49801;37.536;-122.304;2023-02-01T01:15:50;10.70;;;10.30;;
63651;SDS011;49801;37.536;-122.304;2023-02-01T01:16:17;13.50;;;13.10;;
63651;SDS011;49801;37.536;-122.304;2023-02-01T01:16:44;10.57;;;10.20;;
63651;SDS011;49801;37.536;-122.304;2023-02-01T01:17:10;10.32;;;9.82;;
63651;SDS011;49801;37.536;-122.304;2023-02-01T01:17:36;10.70;;;10.07;;
63651;SDS011;49801;37.536;-122.304;2023-02-01T01:18:02;10.35;;;9.85;;
63651;SDS011;49801;37.536;-122.304;2023-02-01T01:18:29;10.27;;;9.93;;
63651;SDS011;49801;37.536;-122.304;2023-02-01T01:18:57;10.70;;;10.30;;
63651;SDS011;49801;37.536;-122.304;2023-02-01T01:19:23;10.40;;;10.02;;
63651;SDS011;49801;37.536;-122.304;2023-02-01T01:19:49;10.18;;;9.88;;
63651;SDS011;49801;37.536;-122.304;2023-02-01T01:20:16;10.48;;;10.18;;
63651;SDS011;49801;37.536;-122.304;2023-02-01T01:20:42;19.67;;;18.98;;
63651;SDS011;49801;37.536;-122.304;2023-02-01T01:21:09;25.95;;;25.00;;
63651;SDS011;49801;37.536;-122.304;2023-02-01T01:21:37;29.73;;;28.65;;
63651;SDS011;49801;37.536;-122.304;2023-02-01T01:22:04;30.70;;;29.67;;
63651;SDS011;49801;37.536;-122.304;2023-02-01T01:22:30;26.73;;;25.85;;
63651;SDS011;49801;37.536;-122.304;2023-02-01T01:22:56;31.02;;;29.85;;
63651;SDS011;49801;37.536;-122.304;2023-02-01T01:23:22;27.83;;;26.85;;
63651;SDS011;49801;37.536;-122.304;2023-02-01T01:23:48;32.72;;;31.40;;
63651;SDS011;49801;37.536;-122.304;2023-02-01T01:24:15;35.28;;;34.08;;
63651;SDS011;49801;37.536;-122.304;2023-02-01T01:24:41;26.20;;;25.23;;
63651;SDS011;49801;37.536;-122.304;2023-02-01T01:25:07;32.05;;;30.73;;
63651;SDS011;49801;37.536;-122.304;2023-02-01T01:25:37;21.60;;;20.90;;
63651;SDS011;49801;37.536;-122.304;2023-02-01T01:26:05;18.05;;;17.27;;
63651;SDS011;49801;37.536;-122.304;2023-02-01T01:26:34;16.67;;;15.75;;
63651;SDS011;49801;37.536;-122.304;2023-02-01T01:27:01;20.38;;;19.67;;
63651;SDS011;49801;37.536;-122.304;2023-02-01T01:27:27;22.95;;;22.02;;
63651;SDS011;49801;37.536;-122.304;2023-02-01T01:27:53;25.17;;;24.08;;
63651;SDS011;49801;37.536;-122.304;2023-02-01T01:28:19;27.77;;;26.85;;
63651;SDS011;49801;37.536;-122.304;2023-02-01T01:28:45;40.40;;;38.90;;
63651;SDS011;49801;37.536;-122.304;2023-02-01T01:29:12;34.17;;;32.92;;
63651;SDS011;49801;37.536;-122.304;2023-02-01T01:29:38;36.58;;;35.03;;
63651;SDS011;49801;37.536;-122.304;2023-02-01T01:30:04;40.72;;;39.17;;
63651;SDS011;49801;37.536;-122.304;2023-02-01T01:30:31;38.75;;;37.13;;
63651;SDS011;49801;37.536;-122.304;2023-02-01T01:30:58;33.97;;;32.67;;
63651;SDS011;49801;37.536;-122.304;2023-02-01T01:31:25;34.83;;;33.60;;
63651;SDS011;49801;37.536;-122.304;2023-02-01T01:31:52;35.47;;;34.25;;
63651;SDS011;49801;37.536;-122.304;2023-02-01T01:32:18;36.08;;;34.78;;
63651;SDS011;49801;37.536;-122.304;2023-02-01T01:32:44;30.60;;;29.60;;
63651;SDS011;49801;37.536;-122.304;2023-02-01T01:33:10;30.05;;;29.05;;
63651;SDS011;49801;37.536;-122.304;2023-02-01T01:33:37;28.80;;;27.40;;
63651;SDS011;49801;37.536;-122.304;2023-02-01T01:34:03;31.13;;;29.85;;
63651;SDS011;49801;37.536;-122.304;2023-02-01T01:34:30;39.58;;;37.80;;
63651;SDS011;49801;37.536;-122.304;2023-02-01T01:34:56;43.42;;;41.72;;
63651;SDS011;49801;37.536;-122.304;2023-02-01T01:35:22;42.70;;;40.78;;
63651;SDS011;49801;37.536;-122.304;2023-02-01T01:35:48;40.97;;;39.17;;
63651;SDS011;49801;37.536;-122.304;2023-02-01T01:36:14;49.80;;;47.78;;
63651;SDS011;49801;37.536;-122.304;2023-02-01T01:36:41;51.58;;;49.45;;
63651;SDS011;49801;37.536;-122.304;2023-02-01T01:37:07;58.00;;;55.55;;
63651;SDS011;49801;37.536;-122.304;2023-02-01T01:37:33;46.90;;;44.33;;
63651;SDS011;49801;37.536;-122.304;2023-02-01T01:38:01;46.03;;;44.17;;
63651;SDS011;49801;37.536;-122.304;2023-02-01T01:38:27;46.53;;;44.63;;
63651;SDS011;49801;37.536;-122.304;2023-02-01T01:38:53;54.88;;;52.45;;
63651;SDS011;49801;37.536;-122.304;2023-02-01T01:39:20;41.92;;;40.17;;
63651;SDS011;49801;37.536;-122.304;2023-02-01T01:39:46;56.85;;;51.25;;
63651;SDS011;49801;37.536;-122.304;2023-02-01T01:40:12;57.25;;;54.30;;
63651;SDS011;49801;37.536;-122.304;2023-02-01T01:40:38;53.80;;;51.55;;
63651;SDS011;49801;37.536;-122.304;2023-02-01T01:41:05;42.58;;;39.70;;
63651;SDS011;49801;37.536;-122.304;2023-02-01T01:41:31;31.08;;;29.77;;
63651;SDS011;49801;37.536;-122.304;2023-02-01T01:41:58;31.65;;;30.38;;
63651;SDS011;49801;37.536;-122.304;2023-02-01T01:42:24;36.20;;;34.40;;
63651;SDS011;49801;37.536;-122.304;2023-02-01T01:42:50;49.03;;;47.03;;
63651;SDS011;49801;37.536;-122.304;2023-02-01T01:43:19;38.42;;;37.05;;
63651;SDS011;49801;37.536;-122.304;2023-02-01T01:45:23;32.33;;;31.13;;
63651;SDS011;49801;37.536;-122.304;2023-02-01T01:45:57;22.73;;;21.98;;
63651;SDS011;49801;37.536;-122.304;2023-02-01T01:46:24;27.02;;;26.15;;
63651;SDS011;49801;37.536;-122.304;2023-02-01T01:46:52;26.80;;;25.95;;
63651;SDS011;49801;37.536;-122.304;2023-02-01T01:47:18;34.22;;;32.95;;
63651;SDS011;49801;37.536;-122.304;2023-02-01T01:47:46;51.72;;;49.42;;
63651;SDS011;49801;37.536;-122.304;2023-02-01T01:48:28;42.05;;;40.42;;
63651;SDS011;49801;37.536;-122.304;2023-02-01T01:49:01;25.98;;;25.10;;
63651;SDS011;49801;37.536;-122.304;2023-02-01T01:49:34;18.88;;;18.10;;
63651;SDS011;49801;37.536;-122.304;2023-02-01T01:50:01;26.58;;;25.77;;
63651;SDS011;49801;37.536;-122.304;2023-02-01T01:50:33;29.55;;;28.50;;
63651;SDS011;49801;37.536;-122.304;2023-02-01T01:51:06;17.83;;;17.27;;
63651;SDS011;49801;37.536;-122.304;2023-02-01T01:52:04;12.93;;;12.50;;
63651;SDS011;49801;37.536;-122.304;2023-02-01T01:52:31;18.98;;;18.27;;
63651;SDS011;49801;37.536;-122.304;2023-02-01T01:53:00;16.63;;;16.02;;
63651;SDS011;49801;37.536;-122.304;2023-02-01T01:53:31;19.13;;;18.35;;
63651;SDS011;49801;37.536;-122.304;2023-02-01T01:54:06;12.88;;;12.48;;
63651;SDS011;49801;37.536;-122.304;2023-02-01T01:54:55;23.42;;;22.63;;
63651;SDS011;49801;37.536;-122.304;2023-02-01T01:55:24;22.85;;;22.08;;
63651;SDS011;49801;37.536;-122.304;2023-02-01T01:55:53;23.15;;;22.40;;
63651;SDS011;49801;37.536;-122.304;2023-02-01T01:56:21;26.70;;;25.83;;
63651;SDS011;49801;37.536;-122.304;2023-02-01T01:56:50;35.97;;;34.50;;
63651;SDS011;49801;37.536;-122.304;2023-02-01T01:57:23;57.70;;;55.42;;
63651;SDS011;49801;37.536;-122.304;2023-02-01T01:58:01;51.90;;;49.58;;
63651;SDS011;49801;37.536;-122.304;2023-02-01T01:58:31;53.60;;;51.55;;
63651;SDS011;49801;37.536;-122.304;2023-02-01T01:58:59;43.95;;;42.35;;
63651;SDS011;49801;37.536;-122.304;2023-02-01T01:59:27;39.20;;;37.60;;
63651;SDS011;49801;37.536;-122.304;2023-02-01T01:59:57;55.22;;;53.05;;
63651;SDS011;49801;37.536;-122.304;2023-02-01T02:00:31;37.42;;;35.72;;
63651;SDS011;49801;37.536;-122.304;2023-02-01T02:00:58;31.70;;;30.58;;
63651;SDS011;49801;37.536;-122.304;2023-02-01T02:01:24;30.60;;;29.50;;
63651;SDS011;49801;37.536;-122.304;2023-02-01T02:01:51;27.65;;;26.70;;
63651;SDS011;49801;37.536;-122.304;2023-02-01T02:02:18;33.33;;;32.13;;
63651;SDS011;49801;37.536;-122.304;2023-02-01T02:02:45;36.97;;;35.60;;
63651;SDS011;49801;37.536;-122.304;2023-02-01T02:03:33;39.53;;;38.13;;
63651;SDS011;49801;37.536;-122.304;2023-02-01T02:04:04;56.22;;;53.88;;
63651;SDS011;49801;37.536;-122.304;2023-02-01T02:04:31;52.15;;;50.08;;
63651;SDS011;49801;37.536;-122.304;2023-02-01T02:04:59;32.97;;;31.67;;
63651;SDS011;49801;37.536;-122.304;2023-02-01T02:05:26;34.00;;;32.65;;
63651;SDS011;49801;37.536;-122.304;2023-02-01T02:05:54;34.30;;;32.72;;
63651;SDS011;49801;37.536;-122.304;2023-02-01T02:06:34;40.08;;;38.05;;
63651;SDS011;49801;37.536;-122.304;2023-02-01T02:07:14;42.75;;;41.10;;
63651;SDS011;49801;37.536;-122.304;2023-02-01T02:07:48;46.00;;;44.00;;
63651;SDS011;49801;37.536;-122.304;2023-02-01T02:08:17;40.10;;;38.33;;
63651;SDS011;49801;37.536;-122.304;2023-02-01T02:08:45;39.65;;;38.08;;
63651;SDS011;49801;37.536;-122.304;2023-02-01T02:09:11;43.28;;;41.58;;
63651;SDS011;49801;37.536;-122.304;2023-02-01T02:09:38;44.47;;;42.42;;
63651;SDS011;49801;37.536;-122.304;2023-02-01T02:10:06;40.28;;;38.58;;
63651;SDS011;49801;37.536;-122.304;2023-02-01T02:10:36;40.88;;;39.10;;
63651;SDS011;49801;37.536;-122.304;2023-02-01T02:11:21;33.38;;;31.98;;
63651;SDS011;49801;37.536;-122.304;2023-02-01T02:11:47;37.05;;;35.45;;
63651;SDS011;49801;37.536;-122.304;2023-02-01T02:12:14;30.83;;;29.58;;
63651;SDS011;49801;37.536;-122.304;2023-02-01T02:12:40;36.42;;;34.97;;
63651;SDS011;49801;37.536;-122.304;2023-02-01T02:13:09;33.03;;;31.85;;
63651;SDS011;49801;37.536;-122.304;2023-02-01T02:13:42;39.13;;;37.53;;
63651;SDS011;49801;37.536;-122.304;2023-02-01T02:14:14;39.45;;;37.88;;
63651;SDS011;49801;37.536;-122.304;2023-02-01T02:14:44;37.10;;;35.60;;
63651;SDS011;49801;37.536;-122.304;2023-02-01T02:15:12;28.60;;;27.52;;
63651;SDS011;49801;37.536;-122.304;2023-02-01T02:15:42;26.83;;;25.83;;
63651;SDS011;49801;37.536;-122.304;2023-02-01T02:17:38;45.10;;;43.38;;
63651;SDS011;49801;37.536;-122.304;2023-02-01T02:18:27;31.05;;;29.65;;
63651;SDS011;49801;37.536;-122.304;2023-02-01T02:19:32;24.10;;;23.10;;
63651;SDS011;49801;37.536;-122.304;2023-02-01T02:29:44;23.20;;;22.40;;
63651;SDS011;49801;37.536;-122.304;2023-02-01T02:33:02;26.65;;;25.75;;
63651;SDS011;49801;37.536;-122.304;2023-02-01T02:36:07;23.05;;;22.17;;
63651;SDS011;49801;37.536;-122.304;2023-02-01T02:37:09;24.73;;;23.58;;
63651;SDS011;49801;37.536;-122.304;2023-02-01T02:38:09;15.52;;;14.98;;
63651;SDS011;49801;37.536;-122.304;2023-02-01T02:40:20;14.65;;;14.00;;
63651;SDS011;49801;37.536;-122.304;2023-02-01T02:41:13;15.13;;;14.50;;
63651;SDS011;49801;37.536;-122.304;2023-02-01T02:42:31;14.07;;;13.48;;
63651;SDS011;49801;37.536;-122.304;2023-02-01T02:44:54;16.80;;;15.93;;
63651;SDS011;49801;37.536;-122.304;2023-02-01T02:45:52;20.77;;;19.98;;
63651;SDS011;49801;37.536;-122.304;2023-02-01T02:46:41;18.38;;;17.42;;
63651;SDS011;49801;37.536;-122.304;2023-02-01T02:48:12;19.10;;;18.40;;
63651;SDS011;49801;37.536;-122.304;2023-02-01T02:48:57;16.20;;;15.35;;
63651;SDS011;49801;37.536;-122.304;2023-02-01T02:50:44;17.48;;;16.67;;
63651;SDS011;49801;37.536;-122.304;2023-02-01T02:51:50;19.33;;;18.40;;
63651;SDS011;49801;37.536;-122.304;2023-02-01T02:52:42;17.42;;;16.55;;
63651;SDS011;49801;37.536;-122.304;2023-02-01T02:54:39;16.00;;;15.10;;
63651;SDS011;49801;37.536;-122.304;2023-02-01T02:55:12;19.25;;;18.10;;
63651;SDS011;49801;37.536;-122.304;2023-02-01T02:55:40;22.45;;;21.50;;
63651;SDS011;49801;37.536;-122.304;2023-02-01T02:56:07;25.02;;;23.88;;
63651;SDS011;49801;37.536;-122.304;2023-02-01T02:56:55;25.17;;;23.88;;
63651;SDS011;49801;37.536;-122.304;2023-02-01T02:57:42;21.75;;;20.50;;
63651;SDS011;49801;37.536;-122.304;2023-02-01T02:58:28;24.58;;;21.40;;
63651;SDS011;49801;37.536;-122.304;2023-02-01T02:59:14;21.50;;;20.70;;
63651;SDS011;49801;37.536;-122.304;2023-02-01T03:00:04;18.48;;;17.55;;
63651;SDS011;49801;37.536;-122.304;2023-02-01T03:00:53;19.67;;;18.77;;
63651;SDS011;49801;37.536;-122.304;2023-02-01T03:01:40;17.95;;;17.17;;
63651;SDS011;49801;37.536;-122.304;2023-02-01T03:02:25;20.92;;;20.10;;
63651;SDS011;49801;37.536;-122.304;2023-02-01T03:03:11;19.70;;;18.88;;
63651;SDS011;49801;37.536;-122.304;2023-02-01T03:03:55;19.30;;;18.50;;
63651;SDS011;49801;37.536;-122.304;2023-02-01T03:04:33;20.98;;;19.98;;
63651;SDS011;49801;37.536;-122.304;2023-02-01T03:05:00;23.23;;;22.23;;
63651;SDS011;49801;37.536;-122.304;2023-02-01T03:05:31;23.20;;;22.10;;
63651;SDS011;49801;37.536;-122.304;2023-02-01T03:05:59;21.58;;;20.55;;
63651;SDS011;49801;37.536;-122.304;2023-02-01T03:06:25;25.83;;;24.42;;
63651;SDS011;49801;37.536;-122.304;2023-02-01T03:06:52;27.35;;;25.75;;
63651;SDS011;49801;37.536;-122.304;2023-02-01T03:08:41;28.52;;;26.73;;
63651;SDS011;49801;37.536;-122.304;2023-02-01T03:09:13;28.77;;;27.42;;
63651;SDS011;49801;37.536;-122.304;2023-02-01T03:09:46;29.25;;;27.63;;
63651;SDS011;49801;37.536;-122.304;2023-02-01T03:10:18;26.38;;;25.23;;
63651;SDS011;49801;37.536;-122.304;2023-02-01T03:11:29;22.90;;;21.80;;
63651;SDS011;49801;37.536;-122.304;2023-02-01T03:12:17;19.42;;;18.48;;
63651;SDS011;49801;37.536;-122.304;2023-02-01T03:13:06;20.50;;;19.50;;
63651;SDS011;49801;37.536;-122.304;2023-02-01T03:14:24;17.02;;;16.40;;